Time;durP1;ratioP1;P1;durP2;ratioP2;P2;SDS_P1;SDS_P2;PMS_P1;PMS_P2;Temp;Humidity;BMP_temperature;BMP_pressure;BME280_temperature;BME280_humidity;BME280_pressure;Samples;Min_cycle;Max_cycle;Signal;HPM_P1;HPM_P2
2023/04/15 00:02:14;;;;;;;26.37;9.50;;;;;;;10.13;49.71;96477.56;5037219;28;20262;-71
2023/04/15 00:04:39;;;;;;;18.33;7.73;;;;;;;10.16;49.75;96479.84;5052713;28;20218;-71
2023/04/15 00:07:04;;;;;;;19.20;8.93;;;;;;;10.21;49.82;96477.53;5046673;28;20453;-72
2023/04/15 00:09:30;;;;;;;25.33;10.40;;;;;;;10.28;49.64;96473.28;5049625;28;20180;-71
2023/04/15 00:11:56;;;;;;;19.60;6.90;;;;;;;10.30;49.30;96476.53;5045805;28;20249;-72
2023/04/15 00:14:21;;;;;;;13.23;6.63;;;;;;;10.27;49.17;96471.63;5052613;28;20206;-69
2023/04/15 00:16:54;;;;;;;13.20;7.57;;;;;;;10.22;49.29;96480.97;5049876;28;20429;-74
2023/04/15 00:19:19;;;;;;;13.43;6.13;;;;;;;10.24;49.61;96474.59;5045462;28;20568;-70
2023/04/15 00:21:45;;;;;;;15.90;6.67;;;;;;;10.14;50.07;96482.63;5051216;28;20437;-71
2023/04/15 00:24:10;;;;;;;16.60;7.00;;;;;;;10.12;49.78;96481.16;5040213;28;20206;-69
2023/04/15 00:26:36;;;;;;;12.70;5.93;;;;;;;10.12;49.84;96478.53;5044250;28;20199;-74
2023/04/15 00:29:01;;;;;;;15.57;5.30;;;;;;;10.13;49.51;96477.56;5051895;28;20191;-72
2023/04/15 00:31:27;;;;;;;14.63;5.40;;;;;;;10.07;49.54;96475.63;5049617;28;20196;-71
2023/04/15 00:33:52;;;;;;;12.03;6.00;;;;;;;10.04;49.71;96475.94;5055617;28;20670;-70
2023/04/15 00:36:18;;;;;;;11.70;5.90;;;;;;;10.01;49.89;96465.81;5042841;28;20190;-70
2023/04/15 00:38:43;;;;;;;13.23;6.10;;;;;;;9.95;50.21;96470.75;5046605;28;20187;-71
2023/04/15 00:41:09;;;;;;;17.70;6.37;;;;;;;9.91;49.99;96466.81;5051785;28;20206;-70
2023/04/15 00:43:35;;;;;;;9.60;5.47;;;;;;;9.94;50.11;96466.47;5027701;28;20204;-70
2023/04/15 00:46:03;;;;;;;12.20;4.80;;;;;;;9.91;49.79;96466.81;5045174;28;20797;-68
2023/04/15 00:48:29;;;;;;;7.60;4.30;;;;;;;9.96;49.96;96466.31;5039855;28;20614;-70
2023/04/15 00:50:54;;;;;;;6.90;4.30;;;;;;;9.83;50.54;96466.81;5038101;28;20441;-69
2023/04/15 00:53:20;;;;;;;6.30;4.40;;;;;;;9.81;50.33;96466.97;5048863;28;20257;-69
2023/04/15 00:55:45;;;;;;;9.80;4.23;;;;;;;9.84;50.36;96469.28;5046836;28;20278;-70
2023/04/15 00:58:11;;;;;;;11.33;5.00;;;;;;;9.82;50.76;96476.47;5055352;28;20178;-70
2023/04/15 01:00:37;;;;;;;6.40;4.20;;;;;;;9.81;50.47;96472.22;5063276;28;20781;-72
2023/04/15 01:03:02;;;;;;;8.80;4.87;;;;;;;9.74;50.56;96480.88;5044990;28;20578;-70
2023/04/15 01:05:29;;;;;;;12.07;5.50;;;;;;;9.59;50.88;96478.91;5057448;28;20231;-73
2023/04/15 01:07:55;;;;;;;13.60;7.50;;;;;;;9.42;51.08;96472.06;5048010;28;20234;-71
2023/04/15 01:10:21;;;;;;;17.77;8.30;;;;;;;9.54;50.86;96476.00;5055421;28;20479;-72
2023/04/15 01:12:46;;;;;;;16.27;7.87;;;;;;;9.54;50.92;96470.75;5054190;28;20456;-72
2023/04/15 01:15:12;;;;;;;16.27;8.07;;;;;;;9.53;50.62;96469.94;5058025;28;20427;-71
2023/04/15 01:17:38;;;;;;;18.77;7.53;;;;;;;9.60;50.42;96469.28;5044516;28;20175;-71
2023/04/15 01:20:04;;;;;;;11.60;6.50;;;;;;;9.51;50.60;96471.09;5043318;28;20191;-71
2023/04/15 01:22:32;;;;;;;19.73;5.90;;;;;;;9.52;51.02;96468.28;5046534;28;20432;-69
2023/04/15 01:25:05;;;;;;;8.20;5.17;;;;;;;9.57;51.12;96465.22;5030729;28;20482;-69
2023/04/15 01:27:31;;;;;;;5.03;3.97;;;;;;;9.63;50.92;96463.75;5045648;28;20453;-69
2023/04/15 01:29:57;;;;;;;6.80;4.13;;;;;;;9.59;50.37;96463.22;5038582;28;20427;-72
2023/04/15 01:32:23;;;;;;;6.20;3.83;;;;;;;9.57;50.83;96462.59;5047665;28;20459;-70
2023/04/15 01:34:48;;;;;;;5.73;4.00;;;;;;;9.52;50.29;96457.03;5028886;28;20195;-70
2023/04/15 01:37:14;;;;;;;10.90;4.20;;;;;;;9.51;51.09;96464.03;5042939;28;20201;-69
2023/04/15 01:39:40;;;;;;;6.67;4.07;;;;;;;9.49;51.04;96458.19;5054852;28;20178;-70
2023/04/15 01:42:05;;;;;;;7.80;3.50;;;;;;;9.41;50.67;96467.81;5058244;28;20182;-71
2023/04/15 01:44:31;;;;;;;5.37;3.93;;;;;;;9.43;50.99;96463.25;5053823;28;20925;-68
2023/04/15 01:46:57;;;;;;;8.33;3.87;;;;;;;9.41;50.78;96462.59;5043967;28;20266;-70
2023/04/15 01:49:22;;;;;;;8.33;3.90;;;;;;;9.40;51.08;96463.56;5021250;28;20587;-69
2023/04/15 01:51:48;;;;;;;8.30;4.30;;;;;;;9.40;50.93;96468.78;5028594;28;20457;-72
2023/04/15 01:54:13;;;;;;;6.43;3.80;;;;;;;9.42;50.56;96464.22;5050094;28;20277;-69
2023/04/15 01:56:39;;;;;;;5.73;3.80;;;;;;;9.35;50.58;96461.44;5048942;28;20179;-71
2023/04/15 01:59:05;;;;;;;6.40;4.10;;;;;;;9.26;50.82;96460.63;5049446;28;20547;-68
2023/04/15 02:01:30;;;;;;;6.60;4.17;;;;;;;9.27;51.39;96454.41;5051277;28;20206;-70
2023/04/15 02:03:56;;;;;;;8.53;4.00;;;;;;;9.26;51.35;96459.81;5048452;28;20457;-71
2023/04/15 02:06:21;;;;;;;5.63;3.73;;;;;;;9.20;51.46;96458.63;5054515;28;20203;-70
2023/04/15 02:08:47;;;;;;;9.47;4.00;;;;;;;9.30;50.89;96459.31;5049756;28;20183;-71
2023/04/15 02:11:12;;;;;;;8.73;4.07;;;;;;;9.21;51.06;96468.13;5048230;28;20179;-69
2023/04/15 02:13:38;;;;;;;7.30;3.10;;;;;;;9.17;51.01;96459.78;5053285;28;20213;-69
2023/04/15 02:16:03;;;;;;;7.63;3.87;;;;;;;9.13;51.25;96468.13;5057238;28;20246;-70
2023/04/15 02:18:29;;;;;;;7.80;3.87;;;;;;;9.06;51.09;96463.53;5048490;28;20186;-71
2023/04/15 02:20:57;;;;;;;7.70;4.27;;;;;;;9.01;51.90;96457.97;5048826;28;20185;-70
2023/04/15 02:23:22;;;;;;;6.40;3.30;;;;;;;9.04;51.45;96455.03;5053561;28;20775;-70
2023/04/15 02:25:48;;;;;;;4.00;3.30;;;;;;;9.13;51.72;96457.66;5048842;28;20417;-69
2023/04/15 02:28:13;;;;;;;6.03;2.90;;;;;;;9.09;51.56;96456.34;5051295;28;20262;-69
2023/04/15 02:30:39;;;;;;;9.17;4.40;;;;;;;9.08;51.21;96455.53;5051815;28;20186;-70
2023/04/15 02:33:06;;;;;;;6.23;3.57;;;;;;;9.06;51.61;96453.09;5050882;28;20195;-71
2023/04/15 02:35:31;;;;;;;9.67;4.00;;;;;;;9.00;51.54;96448.50;5043116;28;20418;-71
2023/04/15 02:37:57;;;;;;;4.60;3.43;;;;;;;8.89;51.84;96452.22;5056039;28;20451;-70
2023/04/15 02:40:22;;;;;;;6.80;3.43;;;;;;;8.90;51.40;96447.81;5046788;28;20176;-69
2023/04/15 02:42:48;;;;;;;5.47;3.70;;;;;;;8.95;50.98;96449.94;5049211;28;20552;-69
2023/04/15 02:45:13;;;;;;;7.27;3.90;;;;;;;8.89;51.41;96446.19;5054785;28;20261;-70
2023/04/15 02:47:40;;;;;;;7.20;3.80;;;;;;;8.89;51.97;96443.56;5040821;28;20202;-71
2023/04/15 02:50:11;;;;;;;8.80;3.90;;;;;;;8.95;52.24;96449.94;5055586;28;20191;-71
2023/04/15 02:52:40;;;;;;;7.97;3.97;;;;;;;8.86;51.95;96449.09;5040489;28;20914;-71
2023/04/15 02:55:05;;;;;;;10.10;3.60;;;;;;;8.86;51.61;96447.34;5048972;28;20988;-72
2023/04/15 02:57:31;;;;;;;5.67;3.27;;;;;;;8.90;51.64;96448.63;5049024;28;20414;-70
2023/04/15 02:59:56;;;;;;;11.43;3.50;;;;;;;8.88;51.67;96444.53;5047934;28;20179;-70
2023/04/15 03:02:23;;;;;;;8.30;3.10;;;;;;;8.88;52.08;96444.53;5048574;28;20194;-71
2023/04/15 03:04:48;;;;;;;8.73;4.23;;;;;;;8.87;52.02;96445.53;5047700;28;20218;-71
2023/04/15 03:07:14;;;;;;;6.53;3.47;;;;;;;8.83;51.82;96444.19;5039593;28;20900;-73
2023/04/15 03:09:40;;;;;;;12.27;4.07;;;;;;;8.73;51.99;96442.53;5048642;28;20175;-71
2023/04/15 03:12:05;;;;;;;4.90;2.60;;;;;;;8.75;52.11;96443.22;5041671;28;20236;-69
2023/04/15 03:14:31;;;;;;;5.70;3.23;;;;;;;8.74;52.27;96443.38;5040661;28;20767;-70
2023/04/15 03:16:58;;;;;;;5.97;3.10;;;;;;;8.73;52.32;96441.75;5045846;28;20190;-70
2023/04/15 03:19:23;;;;;;;4.53;2.97;;;;;;;8.72;52.22;96450.56;5036378;28;20183;-73
2023/04/15 03:21:49;;;;;;;13.20;3.73;;;;;;;8.69;52.51;96441.25;5031365;28;20507;-69
2023/04/15 03:24:14;;;;;;;4.13;2.60;;;;;;;8.75;52.24;96439.78;5036027;28;20227;-70
2023/04/15 03:26:40;;;;;;;5.60;3.57;;;;;;;8.78;52.37;96439.44;5035213;28;20686;-72
2023/04/15 03:29:05;;;;;;;5.80;2.83;;;;;;;8.71;52.42;96439.28;5037654;28;20187;-70
2023/04/15 03:31:31;;;;;;;3.27;2.80;;;;;;;8.65;52.33;96436.47;5041327;28;20252;-72
2023/04/15 03:33:56;;;;;;;8.63;2.90;;;;;;;8.68;52.43;96438.78;5050289;28;20195;-69
2023/04/15 03:36:22;;;;;;;6.70;3.50;;;;;;;8.75;52.90;96435.38;5040913;28;20182;-69
2023/04/15 03:38:48;;;;;;;6.60;3.20;;;;;;;8.65;52.82;96434.69;5037857;28;20195;-72
2023/04/15 03:41:13;;;;;;;5.80;3.20;;;;;;;8.61;52.80;96438.59;5035962;28;20188;-71
2023/04/15 03:43:39;;;;;;;6.80;3.67;;;;;;;8.49;52.57;96439.84;5033110;28;20448;-71
2023/04/15 03:46:04;;;;;;;4.07;3.20;;;;;;;8.28;52.68;96436.66;5050027;28;20183;-70
2023/04/15 03:48:30;;;;;;;7.33;3.33;;;;;;;8.20;52.77;96441.84;5034712;28;20186;-69
2023/04/15 03:50:55;;;;;;;7.07;3.30;;;;;;;8.18;52.89;96437.75;5047799;28;20207;-69
2023/04/15 03:53:21;;;;;;;5.03;3.40;;;;;;;8.26;53.29;96437.78;5050947;28;20198;-69
2023/04/15 03:55:47;;;;;;;5.53;3.93;;;;;;;8.27;52.80;96442.03;5036710;28;20214;-69
2023/04/15 03:58:12;;;;;;;7.90;3.30;;;;;;;8.33;53.07;96441.38;5036121;28;20261;-69
2023/04/15 04:00:41;;;;;;;5.10;3.50;;;;;;;8.28;52.66;96443.66;5036510;28;20183;-70
2023/04/15 04:03:06;;;;;;;8.33;3.67;;;;;;;8.17;52.64;96444.75;5038049;28;20218;-72
2023/04/15 04:05:32;;;;;;;5.33;3.50;;;;;;;8.27;53.17;96442.03;5032701;28;20422;-69
2023/04/15 04:07:58;;;;;;;4.90;3.00;;;;;;;8.31;52.48;96443.38;5026777;28;20238;-68
2023/04/15 04:10:23;;;;;;;6.33;3.73;;;;;;;8.34;52.81;96439.63;5033722;28;20195;-70
2023/04/15 04:12:48;;;;;;;7.30;3.23;;;;;;;8.37;53.05;96447.13;5032758;28;20896;-69
2023/04/15 04:15:14;;;;;;;4.50;3.40;;;;;;;8.37;52.90;96455.78;5035169;28;21917;-69
2023/04/15 04:17:40;;;;;;;4.03;3.10;;;;;;;8.32;53.17;96444.97;5025505;28;20176;-70
2023/04/15 04:20:06;;;;;;;6.73;3.13;;;;;;;8.35;53.03;96449.09;5038970;28;20427;-71
2023/04/15 04:22:36;;;;;;;5.23;3.20;;;;;;;8.39;52.92;96455.63;5026237;28;20516;-70
2023/04/15 04:25:02;;;;;;;6.40;3.17;;;;;;;8.37;52.46;96458.38;5037541;28;20433;-69
2023/04/15 04:27:27;;;;;;;5.10;3.10;;;;;;;8.33;52.60;96456.25;5034245;28;20454;-69
2023/04/15 04:29:53;;;;;;;7.03;3.60;;;;;;;8.29;52.23;96453.94;5034362;28;20274;-70
2023/04/15 04:32:18;;;;;;;9.80;3.53;;;;;;;8.20;52.54;96457.50;5035061;28;20192;-70
2023/04/15 04:34:44;;;;;;;10.87;3.33;;;;;;;8.14;52.40;96455.50;5033398;28;20195;-70
2023/04/15 04:37:10;;;;;;;5.60;3.60;;;;;;;8.12;52.73;96455.66;5031018;28;20190;-69
2023/04/15 04:39:35;;;;;;;7.03;3.77;;;;;;;8.18;52.47;96461.25;5035562;28;20711;-70
2023/04/15 04:42:01;;;;;;;5.87;3.40;;;;;;;8.07;53.18;96460.50;5035635;28;20201;-70
2023/04/15 04:44:26;;;;;;;6.67;4.00;;;;;;;7.94;53.05;96465.34;5039234;28;20250;-70
2023/04/15 04:46:51;;;;;;;5.47;3.40;;;;;;;7.98;53.02;96472.72;5030575;28;20681;-70
2023/04/15 04:49:17;;;;;;;7.00;3.33;;;;;;;8.09;52.91;96461.19;5039806;28;20187;-74
2023/04/15 04:51:42;;;;;;;10.50;4.70;;;;;;;8.04;53.40;96470.44;5040638;28;20184;-72
2023/04/15 04:54:08;;;;;;;8.20;3.63;;;;;;;8.10;52.99;96462.81;5044220;28;20203;-71
2023/04/15 04:56:33;;;;;;;5.60;3.70;;;;;;;8.14;52.92;96463.31;5041270;28;20175;-70
2023/04/15 04:58:59;;;;;;;5.00;3.77;;;;;;;8.16;52.71;96469.22;5042924;28;20240;-70
2023/04/15 05:01:26;;;;;;;6.40;3.40;;;;;;;7.97;53.81;96467.63;5048846;28;20186;-70
2023/04/15 05:03:51;;;;;;;5.50;3.50;;;;;;;8.04;53.06;96478.28;5046892;28;20199;-69
2023/04/15 05:06:17;;;;;;;6.60;4.70;;;;;;;8.17;52.90;96470.06;5031908;28;20562;-70
2023/04/15 05:08:42;;;;;;;15.17;8.20;;;;;;;8.32;54.21;96471.09;5002930;28;20641;-70
2023/04/15 05:11:08;;;;;;;9.07;5.37;;;;;;;8.49;53.49;96471.19;5038679;28;20179;-72
2023/04/15 05:13:37;;;;;;;6.50;4.77;;;;;;;8.60;53.13;96479.56;5023865;28;20578;-69
2023/04/15 05:16:06;;;;;;;10.40;5.97;;;;;;;8.72;52.77;96476.69;5038726;28;20222;-70
2023/04/15 05:18:32;;;;;;;8.57;5.60;;;;;;;8.81;51.90;96474.91;5033953;28;20426;-69
2023/04/15 05:20:57;;;;;;;7.90;4.80;;;;;;;8.87;51.60;96476.88;5034472;28;20504;-70
2023/04/15 05:23:23;;;;;;;7.90;4.77;;;;;;;8.83;51.40;96476.38;5046749;28;20211;-71
2023/04/15 05:25:48;;;;;;;19.57;9.50;;;;;;;8.78;51.24;96476.03;5043229;28;20191;-72
2023/04/15 05:28:14;;;;;;;25.43;10.90;;;;;;;8.74;51.65;96480.75;5028277;28;20294;-70
2023/04/15 05:30:40;;;;;;;19.70;8.53;;;;;;;8.76;52.38;96485.81;5037400;28;20186;-71
2023/04/15 05:33:05;;;;;;;8.40;5.97;;;;;;;8.62;52.48;96489.84;5005680;28;20341;-72
2023/04/15 05:35:31;;;;;;;9.53;5.83;;;;;;;8.60;51.78;96489.19;5038322;28;20190;-69
2023/04/15 05:37:56;;;;;;;7.23;4.60;;;;;;;8.57;52.56;96489.50;5034969;28;20176;-68
2023/04/15 05:40:22;;;;;;;5.07;4.00;;;;;;;8.68;52.52;96484.03;5037521;28;20259;-71
2023/04/15 05:42:47;;;;;;;9.10;4.30;;;;;;;8.68;50.89;96486.63;5043231;28;20256;-72
2023/04/15 05:45:13;;;;;;;8.13;3.80;;;;;;;8.58;51.67;96485.91;5047988;28;20448;-69
2023/04/15 05:47:38;;;;;;;8.67;4.00;;;;;;;8.65;51.19;96475.66;5028796;28;20209;-70
2023/04/15 05:50:05;;;;;;;5.77;3.80;;;;;;;8.68;51.52;96481.41;5038199;28;20191;-71
2023/04/15 05:52:31;;;;;;;8.43;4.00;;;;;;;8.76;51.69;96488.44;5052115;28;20270;-70
2023/04/15 05:54:56;;;;;;;9.40;4.13;;;;;;;8.81;51.82;96491.41;5049077;28;20521;-70
2023/04/15 05:57:22;;;;;;;6.97;4.60;;;;;;;8.85;51.66;96487.50;5023152;28;20171;-69
2023/04/15 05:59:47;;;;;;;10.50;4.53;;;;;;;8.90;50.76;96481.78;5050727;28;20187;-68
2023/04/15 06:02:13;;;;;;;6.10;4.30;;;;;;;9.02;51.18;96477.91;5054970;28;20187;-69
2023/04/15 06:04:38;;;;;;;9.03;4.70;;;;;;;9.21;51.53;96482.03;5048884;28;20221;-71
2023/04/15 06:07:04;;;;;;;9.80;4.60;;;;;;;9.34;50.78;96484.16;5049676;28;20282;-70
2023/04/15 06:09:29;;;;;;;9.73;4.90;;;;;;;9.47;50.02;96485.47;5058338;28;20240;-70
2023/04/15 06:11:56;;;;;;;6.27;3.97;;;;;;;9.59;49.73;96478.91;5055885;28;20206;-69
2023/04/15 06:14:22;;;;;;;9.57;4.67;;;;;;;9.74;50.31;96476.47;5057216;28;20591;-70
2023/04/15 06:16:47;;;;;;;6.27;4.13;;;;;;;9.79;49.49;96479.41;5042233;28;20445;-71
2023/04/15 06:19:13;;;;;;;12.07;4.73;;;;;;;9.91;49.58;96479.91;5053506;28;20317;-70
2023/04/15 06:21:38;;;;;;;13.73;5.07;;;;;;;10.02;48.91;96483.94;5057378;28;20265;-71
2023/04/15 06:24:04;;;;;;;8.77;5.27;;;;;;;10.12;49.10;96489.00;5055990;28;20263;-70
2023/04/15 06:26:30;;;;;;;7.10;4.37;;;;;;;10.29;49.36;96484.56;5041259;28;20278;-70
2023/04/15 06:28:55;;;;;;;12.23;4.60;;;;;;;10.48;48.65;96488.63;5022521;28;20271;-70
2023/04/15 06:31:21;;;;;;;11.37;5.77;;;;;;;10.72;48.73;96484.25;5049149;28;20302;-69
2023/04/15 06:33:46;;;;;;;10.70;5.90;;;;;;;10.98;49.01;96488.41;5042425;28;20258;-71
2023/04/15 06:36:12;;;;;;;11.23;5.17;;;;;;;11.23;48.73;96486.47;5029366;28;20180;-70
2023/04/15 06:38:37;;;;;;;9.30;4.53;;;;;;;11.41;48.08;96485.34;5048612;28;20259;-69
2023/04/15 06:41:03;;;;;;;6.80;4.70;;;;;;;11.64;48.24;96486.16;5036392;28;20222;-72
2023/04/15 06:43:29;;;;;;;8.83;4.93;;;;;;;11.80;46.52;96490.47;5035784;28;20198;-68
2023/04/15 06:45:55;;;;;;;7.63;4.77;;;;;;;11.92;46.79;96487.41;5017881;28;20176;-71
2023/04/15 06:48:21;;;;;;;9.17;5.50;;;;;;;12.10;47.07;96487.91;5038674;28;20287;-70
2023/04/15 06:50:47;;;;;;;8.07;5.53;;;;;;;12.34;46.70;96493.09;5045092;28;20301;-71
2023/04/15 06:53:13;;;;;;;7.73;4.87;;;;;;;12.52;45.90;96487.47;5036688;28;20650;-69
2023/04/15 06:55:39;;;;;;;9.93;5.13;;;;;;;12.71;45.55;96486.09;5041935;28;20437;-69
2023/04/15 06:58:04;;;;;;;10.77;5.70;;;;;;;12.85;45.47;96489.72;5037651;28;20183;-71
2023/04/15 07:00:30;;;;;;;9.83;5.70;;;;;;;12.97;45.72;96493.50;5054507;28;20687;-70
2023/04/15 07:02:55;;;;;;;8.63;5.20;;;;;;;13.11;45.47;96493.63;5023147;28;20218;-72
2023/04/15 07:05:21;;;;;;;12.60;5.80;;;;;;;13.24;45.27;96487.72;5037134;28;20188;-70
2023/04/15 07:07:46;;;;;;;11.70;5.83;;;;;;;13.36;45.24;96486.22;5038749;28;20751;-69
2023/04/15 07:10:13;;;;;;;17.30;5.40;;;;;;;13.49;44.74;96490.81;5037106;28;20717;-72
2023/04/15 07:12:39;;;;;;;9.67;4.67;;;;;;;13.51;43.59;96491.44;5045405;28;20550;-69
2023/04/15 07:15:05;;;;;;;7.03;4.43;;;;;;;13.51;43.69;96489.63;5037820;28;20429;-71
2023/04/15 07:17:31;;;;;;;7.90;3.97;;;;;;;13.54;42.84;96493.69;5039307;28;20179;-70
2023/04/15 07:19:56;;;;;;;8.87;4.10;;;;;;;13.55;42.03;96487.44;5038328;28;20419;-72
2023/04/15 07:22:22;;;;;;;10.33;3.70;;;;;;;13.65;42.33;96490.56;5042808;28;20183;-71
2023/04/15 07:24:47;;;;;;;5.73;3.80;;;;;;;13.92;42.50;96487.34;5036301;28;20199;-71
2023/04/15 07:27:13;;;;;;;11.40;3.73;;;;;;;14.10;42.40;96486.88;5045225;28;20711;-73
2023/04/15 07:29:38;;;;;;;22.23;4.57;;;;;;;14.25;41.96;96484.91;5033313;28;20187;-71
2023/04/15 07:32:04;;;;;;;6.40;4.00;;;;;;;14.53;41.70;96480.63;5041180;28;20634;-71
2023/04/15 07:34:29;;;;;;;7.33;3.20;;;;;;;14.82;41.16;96478.75;5031591;28;20583;-71
2023/04/15 07:36:55;;;;;;;11.57;3.60;;;;;;;15.08;40.80;96478.03;5035133;28;20710;-70
2023/04/15 07:39:20;;;;;;;11.80;4.63;;;;;;;15.36;40.50;96466.53;5055745;28;20698;-71
2023/04/15 07:41:46;;;;;;;7.27;4.30;;;;;;;15.58;39.44;96471.63;5048189;28;20187;-72
2023/04/15 07:44:11;;;;;;;10.00;4.17;;;;;;;15.84;38.12;96472.66;5045253;28;20214;-72
2023/04/15 07:46:37;;;;;;;10.90;4.63;;;;;;;16.07;38.22;96470.44;5042103;28;20674;-72
2023/04/15 07:49:02;;;;;;;9.43;4.10;;;;;;;16.33;37.68;96466.13;5031515;28;20696;-70
2023/04/15 07:51:28;;;;;;;8.23;3.93;;;;;;;16.59;38.42;96457.28;5036580;28;20212;-72
2023/04/15 07:53:54;;;;;;;7.27;3.60;;;;;;;16.72;37.37;96468.84;5052864;28;20210;-72
2023/04/15 07:56:19;;;;;;;9.03;2.93;;;;;;;16.71;36.38;96470.69;5043117;28;20179;-71
2023/04/15 07:58:45;;;;;;;6.93;3.17;;;;;;;16.80;36.34;96468.63;5041693;28;20192;-71
2023/04/15 08:01:10;;;;;;;5.80;3.10;;;;;;;16.77;36.05;96468.22;5031719;28;20175;-72
2023/04/15 08:03:36;;;;;;;13.90;5.30;;;;;;;16.61;36.16;96469.50;5023906;28;20692;-70
2023/04/15 08:06:02;;;;;;;10.53;4.63;;;;;;;16.46;36.78;96478.50;5038292;28;20190;-71
2023/04/15 08:08:27;;;;;;;9.20;4.83;;;;;;;16.30;37.09;96477.09;5046555;28;20183;-72
2023/04/15 08:10:52;;;;;;;9.60;4.13;;;;;;;16.08;37.61;96477.34;5037138;28;20838;-72
2023/04/15 08:13:18;;;;;;;9.43;5.17;;;;;;;16.04;38.36;96476.13;5047059;28;20237;-71
2023/04/15 08:15:44;;;;;;;12.60;6.40;;;;;;;16.05;38.92;96479.59;5027159;28;20192;-72
2023/04/15 08:18:10;;;;;;;12.83;6.17;;;;;;;16.04;38.19;96475.34;5041371;28;20300;-73
2023/04/15 08:20:35;;;;;;;10.77;5.63;;;;;;;16.15;38.26;96477.34;5037324;28;20252;-72
2023/04/15 08:23:02;;;;;;;11.60;6.60;;;;;;;16.29;38.47;96478.13;5043089;28;20965;-71
2023/04/15 08:25:28;;;;;;;6.70;4.13;;;;;;;16.45;37.44;96481.34;5042171;28;20309;-73
2023/04/15 08:27:56;;;;;;;7.10;4.40;;;;;;;16.63;37.01;96478.88;5050610;28;20493;-71
2023/04/15 08:30:22;;;;;;;6.23;4.20;;;;;;;16.81;37.16;96478.19;5038018;28;20414;-73
2023/04/15 08:32:50;;;;;;;11.07;4.67;;;;;;;16.94;36.43;96480.00;5041351;28;20487;-73
2023/04/15 08:35:15;;;;;;;7.73;3.77;;;;;;;16.95;35.81;96471.03;5035758;28;20184;-72
2023/04/15 08:37:41;;;;;;;9.90;4.20;;;;;;;16.87;35.47;96473.91;5013001;28;20434;-71
2023/04/15 08:40:08;;;;;;;8.80;3.23;;;;;;;16.73;34.52;96481.06;5045435;28;20286;-72
2023/04/15 08:42:41;;;;;;;11.50;3.63;;;;;;;16.73;34.73;96481.06;5046906;28;20210;-71
2023/04/15 08:45:09;;;;;;;6.10;3.37;;;;;;;16.88;34.45;96481.63;5047736;28;20421;-72
2023/04/15 08:47:35;;;;;;;5.10;2.83;;;;;;;17.16;33.97;96484.97;5039163;28;20450;-71
2023/04/15 08:50:03;;;;;;;3.90;2.60;;;;;;;17.48;33.87;96469.91;5021304;28;20812;-71
2023/04/15 08:52:29;;;;;;;5.73;3.10;;;;;;;17.87;33.58;96472.50;5034367;28;20529;-73
2023/04/15 08:54:57;;;;;;;4.47;2.10;;;;;;;18.10;32.79;96471.09;5039499;28;20532;-73
2023/04/15 08:57:27;;;;;;;3.23;2.30;;;;;;;18.22;32.10;96474.66;5038721;28;20448;-71
2023/04/15 08:59:56;;;;;;;7.73;2.53;;;;;;;18.23;31.10;96470.16;5037268;28;20418;-71
2023/04/15 09:02:23;;;;;;;3.87;2.87;;;;;;;18.25;30.96;96474.22;5052916;28;20436;-72
2023/04/15 09:04:48;;;;;;;3.87;2.37;;;;;;;18.54;30.60;96471.88;5035396;28;20445;-71
2023/04/15 09:07:14;;;;;;;2.37;2.10;;;;;;;18.68;30.54;96474.38;5013701;28;21014;-73
2023/04/15 09:09:41;;;;;;;2.70;2.10;;;;;;;18.80;31.05;96480.56;5033133;28;20192;-71
2023/04/15 09:12:07;;;;;;;4.13;2.47;;;;;;;18.79;30.46;96481.59;5037499;28;20213;-72
2023/04/15 09:14:33;;;;;;;7.90;2.90;;;;;;;18.87;30.30;96472.50;5044231;28;20457;-71
2023/04/15 09:17:01;;;;;;;3.53;2.23;;;;;;;18.85;30.71;96472.75;5033611;28;20418;-71
2023/04/15 09:19:27;;;;;;;13.07;3.43;;;;;;;18.96;30.74;96483.69;5035506;28;20432;-73
2023/04/15 09:21:53;;;;;;;21.03;4.03;;;;;;;19.02;30.52;96483.59;5008850;28;20790;-70
2023/04/15 09:24:19;;;;;;;4.82;2.60;;;;;;;19.02;29.89;96488.09;5028224;28;20422;-71
2023/04/15 09:26:44;;;;;;;5.50;2.40;;;;;;;19.33;29.93;96488.91;5037025;28;20200;-72
2023/04/15 09:29:13;;;;;;;4.17;2.30;;;;;;;19.44;29.59;96496.09;5051180;28;20182;-71
2023/04/15 09:31:40;;;;;;;4.43;2.57;;;;;;;19.41;29.35;96495.75;5030110;28;20291;-73
2023/04/15 09:34:05;;;;;;;4.20;2.20;;;;;;;19.43;28.87;96494.47;5050488;28;20485;-72
2023/04/15 09:36:46;;;;;;;6.40;2.47;;;;;;;19.37;29.38;96502.53;5042291;28;20954;-72
2023/04/15 09:39:12;;;;;;;8.37;2.70;;;;;;;19.42;29.45;96503.50;5037885;28;20184;-72
2023/04/15 09:41:37;;;;;;;6.97;2.63;;;;;;;19.55;28.43;96504.34;5041098;28;20420;-74
2023/04/15 09:44:03;;;;;;;5.03;2.97;;;;;;;19.84;28.32;96497.38;5038039;28;20449;-72
2023/04/15 09:46:42;;;;;;;4.00;2.50;;;;;;;19.88;28.41;96501.19;5019959;28;20230;-70
2023/04/15 09:49:09;;;;;;;4.63;2.53;;;;;;;19.81;28.69;96495.16;5035025;28;20843;-70
2023/04/15 09:51:35;;;;;;;6.00;2.87;;;;;;;19.90;28.43;96503.66;5009660;28;20424;-72
2023/04/15 09:54:00;;;;;;;6.30;2.90;;;;;;;19.80;27.22;96496.19;5043410;28;20820;-71
2023/04/15 09:56:33;;;;;;;3.33;3.03;;;;;;;19.85;27.86;96503.50;5019381;28;20192;-71
2023/04/15 09:58:59;;;;;;;8.73;3.97;;;;;;;19.87;27.48;96498.78;5025755;28;20187;-72
2023/04/15 10:01:24;;;;;;;5.23;3.87;;;;;;;19.78;28.17;96500.94;5029971;28;20449;-73
2023/04/15 10:03:51;;;;;;;11.47;8.80;;;;;;;19.77;28.32;96494.81;5026365;28;20236;-70
2023/04/15 10:06:17;;;;;;;5.10;3.90;;;;;;;19.69;28.96;96508.41;5026207;28;20200;-72
2023/04/15 10:08:42;;;;;;;7.00;2.70;;;;;;;19.60;28.52;96504.47;5031137;28;20510;-72
2023/04/15 10:11:08;;;;;;;4.70;2.50;;;;;;;19.37;28.45;96508.69;5041836;28;20963;-71
2023/04/15 10:13:35;;;;;;;4.63;2.50;;;;;;;19.24;27.37;96516.81;5037868;28;20214;-72
2023/04/15 10:16:13;;;;;;;5.00;2.53;;;;;;;19.10;27.52;96516.16;5041920;28;20603;-71
2023/04/15 10:18:42;;;;;;;4.10;2.30;;;;;;;18.94;27.81;96517.59;5037014;28;20856;-73
2023/04/15 10:21:08;;;;;;;5.40;2.53;;;;;;;18.85;28.22;96525.84;5039428;28;20421;-71
2023/04/15 10:23:34;;;;;;;7.40;2.50;;;;;;;18.82;28.63;96520.97;5046695;28;20438;-71
2023/04/15 10:25:59;;;;;;;5.43;2.70;;;;;;;18.77;28.71;96523.50;5033663;28;20811;-74
2023/04/15 10:28:26;;;;;;;8.50;3.00;;;;;;;18.74;29.29;96518.63;5042504;28;20501;-72
2023/04/15 10:30:52;;;;;;;4.87;3.03;;;;;;;18.70;29.24;96523.56;5032826;28;20213;-71
2023/04/15 10:33:21;;;;;;;7.37;3.17;;;;;;;18.67;29.72;96523.16;5041091;28;20457;-71
2023/04/15 10:35:49;;;;;;;9.55;3.70;;;;;;;18.58;30.47;96528.78;5032556;28;20463;-72
2023/04/15 10:38:37;;;;;;;5.37;2.50;;;;;;;18.43;30.33;96528.31;5035690;28;20187;-70
2023/04/15 10:41:18;;;;;;;4.50;2.80;;;;;;;18.57;30.62;96529.81;5038270;28;20514;-72
2023/04/15 10:43:56;;;;;;;4.93;2.50;;;;;;;18.69;30.29;96534.38;5041810;28;20535;-71
2023/04/15 10:46:22;;;;;;;4.72;2.60;;;;;;;18.77;30.46;96543.88;5035156;28;20444;-71
2023/04/15 10:48:52;;;;;;;7.47;3.00;;;;;;;18.78;30.25;96546.31;5037551;28;20199;-71
2023/04/15 10:51:29;;;;;;;5.20;3.47;;;;;;;18.96;30.29;96542.91;5037263;28;20517;-71
2023/04/15 10:54:00;;;;;;;3.50;3.00;;;;;;;18.68;30.36;96548.66;5039145;28;20441;-70
2023/04/15 10:56:30;;;;;;;7.33;3.77;;;;;;;18.71;30.69;96546.38;5038123;28;20493;-72
2023/04/15 10:58:58;;;;;;;6.67;3.77;;;;;;;18.71;30.76;96540.28;5032811;28;20491;-72
2023/04/15 11:01:48;;;;;;;5.00;3.03;;;;;;;18.57;30.89;96545.72;5030535;28;20430;-71
2023/04/15 11:04:14;;;;;;;4.75;2.80;;;;;;;18.53;31.32;96539.22;5036175;28;20430;-71
2023/04/15 11:06:44;;;;;;;7.70;3.57;;;;;;;18.47;30.90;96540.13;5041904;28;20214;-70
2023/04/15 11:09:30;;;;;;;5.63;3.20;;;;;;;18.45;31.01;96542.16;5036023;28;20192;-72
2023/04/15 11:12:09;;;;;;;6.07;3.57;;;;;;;18.03;31.83;96545.38;5041594;28;20448;-70
2023/04/15 11:14:39;;;;;;;4.60;3.33;;;;;;;18.06;32.19;96546.78;5052481;28;20540;-71
2023/04/15 11:17:04;;;;;;;6.33;3.30;;;;;;;17.93;32.23;96548.47;5028212;28;20520;-70
2023/04/15 11:19:40;;;;;;;7.17;4.90;;;;;;;17.81;32.64;96547.53;5031180;28;21018;-72
2023/04/15 11:22:07;;;;;;;5.97;3.30;;;;;;;17.75;32.92;96551.06;5047450;28;20217;-72
2023/04/15 11:24:33;;;;;;;7.60;2.97;;;;;;;17.81;32.60;96555.50;5029895;28;20535;-72
2023/04/15 11:27:00;;;;;;;4.90;3.30;;;;;;;17.76;33.14;96556.16;5041651;28;20602;-73
2023/04/15 11:29:33;;;;;;;7.20;3.40;;;;;;;17.88;32.04;96548.34;5042924;28;20199;-72
2023/04/15 11:32:08;;;;;;;10.57;2.80;;;;;;;18.30;32.02;96544.34;5039015;28;20448;-73
2023/04/15 11:34:34;;;;;;;4.40;2.90;;;;;;;18.64;31.32;96539.56;5030281;28;20432;-72